createdAt,value
2019-04-16T00:02:12.819Z,16.50
2019-04-16T00:05:02.555Z,16.00
2019-04-16T00:07:47.697Z,18.10
2019-04-16T00:10:25.128Z,14.97
2019-04-16T00:13:11.951Z,15.30
2019-04-16T00:15:42.480Z,15.40
2019-04-16T00:18:12.779Z,15.97
2019-04-16T00:21:00.729Z,16.67
2019-04-16T00:23:42.169Z,16.97
2019-04-16T00:26:12.947Z,16.70
2019-04-16T00:28:43.134Z,17.83
2019-04-16T00:31:13.453Z,17.00
2019-04-16T00:33:43.642Z,15.73
2019-04-16T00:36:15.420Z,15.60
2019-04-16T00:38:45.620Z,18.20
2019-04-16T00:41:15.938Z,13.93
2019-04-16T00:43:46.236Z,19.97
2019-04-16T00:46:17.542Z,17.42
2019-04-16T00:48:47.669Z,16.85
2019-04-16T00:51:18.006Z,15.50
2019-04-16T00:53:48.208Z,18.03
2019-04-16T00:56:18.384Z,14.17
2019-04-16T00:58:49.412Z,15.67
2019-04-16T01:01:21.011Z,17.13
2019-04-16T01:03:51.469Z,17.80
2019-04-16T01:06:21.789Z,16.97
2019-04-16T01:08:54.991Z,16.60
2019-04-16T01:11:24.197Z,15.43
2019-04-16T01:13:55.736Z,18.20
2019-04-16T01:16:26.436Z,16.03
2019-04-16T01:18:57.782Z,18.70
2019-04-16T01:21:28.066Z,16.33
2019-04-16T01:23:58.207Z,21.70
2019-04-16T01:26:28.432Z,18.43
2019-04-16T01:29:10.702Z,14.43
2019-04-16T01:32:09.899Z,17.00
2019-04-16T01:34:56.724Z,14.93
2019-04-16T01:37:43.244Z,15.63
2019-04-16T01:40:18.443Z,16.90
2019-04-16T01:42:47.303Z,16.85
2019-04-16T01:45:17.747Z,15.23
2019-04-16T01:47:48.050Z,16.53
2019-04-16T01:50:18.175Z,15.83
2019-04-16T01:52:50.302Z,17.53
2019-04-16T01:55:20.424Z,20.00
2019-04-16T01:57:50.592Z,18.60
2019-04-16T02:00:20.968Z,16.47
2019-04-16T02:02:51.113Z,19.90
2019-04-16T02:05:23.118Z,18.33
2019-04-16T02:07:53.478Z,15.30
2019-04-16T02:10:24.279Z,14.95
2019-04-16T02:12:54.514Z,15.07
2019-04-16T02:15:24.714Z,16.97
2019-04-16T02:17:55.414Z,16.33
2019-04-16T02:20:27.133Z,23.27
2019-04-16T02:22:57.307Z,16.00
2019-04-16T02:25:27.640Z,22.23
2019-04-16T02:27:57.958Z,21.80
2019-04-16T02:30:28.223Z,16.70
2019-04-16T02:32:58.329Z,18.20
2019-04-16T02:35:28.516Z,16.67
2019-04-16T02:37:58.683Z,18.40
2019-04-16T02:40:28.814Z,16.43
2019-04-16T02:43:04.215Z,16.83
2019-04-16T02:45:30.915Z,20.10
2019-04-16T02:48:01.323Z,16.90
2019-04-16T02:50:38.545Z,15.70
2019-04-16T02:53:33.589Z,20.50
2019-04-16T02:56:29.218Z,23.20
2019-04-16T02:59:11.764Z,16.27
2019-04-16T03:01:56.350Z,18.13
2019-04-16T03:04:30.464Z,20.13
2019-04-16T03:07:03.237Z,15.23
2019-04-16T03:09:32.847Z,19.53
2019-04-16T03:12:03.094Z,19.00
2019-04-16T03:14:33.252Z,17.43
2019-04-16T03:17:21.335Z,20.23
2019-04-16T03:19:52.590Z,14.87
2019-04-16T03:22:22.981Z,14.50
2019-04-16T03:24:53.209Z,18.53
2019-04-16T03:27:23.586Z,17.67
2019-04-16T03:29:53.750Z,15.63
2019-04-16T03:32:23.955Z,19.20
2019-04-16T03:34:54.184Z,20.53
2019-04-16T03:37:24.396Z,17.90
2019-04-16T03:39:54.527Z,17.47
2019-04-16T03:42:27.264Z,19.52
2019-04-16T03:44:57.705Z,19.87
2019-04-16T03:47:28.155Z,16.67
2019-04-16T03:49:59.401Z,22.50
2019-04-16T03:52:30.506Z,17.27
2019-04-16T03:55:00.644Z,18.27
2019-04-16T03:57:33.279Z,17.07
2019-04-16T04:00:02.913Z,19.93
2019-04-16T04:02:33.972Z,20.73
2019-04-16T04:05:06.860Z,18.93
2019-04-16T04:07:36.476Z,19.30
2019-04-16T04:10:07.700Z,19.60
2019-04-16T04:12:38.055Z,18.83
2019-04-16T04:15:08.971Z,19.90
2019-04-16T04:17:39.602Z,18.43
2019-04-16T04:20:11.135Z,19.80
2019-04-16T04:22:41.445Z,18.37
2019-04-16T04:25:11.771Z,17.83
2019-04-16T04:27:43.666Z,17.60
2019-04-16T04:30:16.660Z,17.63
2019-04-16T04:32:47.866Z,18.60
2019-04-16T04:35:21.791Z,17.70
2019-04-16T04:37:50.496Z,16.67
2019-04-16T04:40:21.031Z,16.37
2019-04-16T04:42:51.250Z,17.30
2019-04-16T04:45:21.534Z,21.80
2019-04-16T04:47:52.380Z,17.33
2019-04-16T04:50:23.388Z,19.32
2019-04-16T04:52:53.640Z,17.30
2019-04-16T04:55:26.914Z,27.03
2019-04-16T04:57:56.193Z,17.60
2019-04-16T05:00:26.415Z,17.03
2019-04-16T05:02:56.844Z,15.93
2019-04-16T05:05:40.979Z,15.03
2019-04-16T05:08:11.479Z,18.80
2019-04-16T05:10:43.248Z,15.80
2019-04-16T05:13:13.710Z,17.37
2019-04-16T05:15:43.860Z,19.60
2019-04-16T05:18:14.253Z,14.23
2019-04-16T05:20:47.010Z,17.00
2019-04-16T05:23:16.395Z,17.40
2019-04-16T05:25:46.925Z,14.93
2019-04-16T05:28:17.148Z,17.57
2019-04-16T05:30:51.858Z,16.57
2019-04-16T05:33:19.465Z,15.67
2019-04-16T05:35:49.848Z,15.68
2019-04-16T05:38:23.554Z,15.13
2019-04-16T05:40:53.183Z,17.55
2019-04-16T05:43:23.507Z,17.27
2019-04-16T05:45:53.670Z,16.10
2019-04-16T05:48:24.278Z,16.07
2019-04-16T05:50:59.761Z,19.57
2019-04-16T05:53:27.575Z,15.40
2019-04-16T05:56:14.356Z,15.83
2019-04-16T05:58:44.564Z,18.47
2019-04-16T06:01:34.004Z,16.47
2019-04-16T06:04:04.462Z,22.48
2019-04-16T06:06:34.687Z,25.53
2019-04-16T06:09:11.855Z,20.37
2019-04-16T06:11:39.862Z,19.27
2019-04-16T06:14:26.271Z,15.43
2019-04-16T06:17:15.268Z,27.33
2019-04-16T06:20:07.923Z,20.30
2019-04-16T06:22:47.123Z,24.40
2019-04-16T06:25:45.266Z,44.23
2019-04-16T06:28:43.801Z,55.40
2019-04-16T06:31:39.189Z,22.63
2019-04-16T06:34:31.492Z,44.63
2019-04-16T06:37:27.161Z,22.57
2019-04-16T06:40:06.686Z,21.85
2019-04-16T06:43:07.959Z,37.17
2019-04-16T06:45:46.504Z,20.73
2019-04-16T06:48:22.255Z,24.30
2019-04-16T06:51:12.648Z,19.20
2019-04-16T06:54:04.936Z,22.03
2019-04-16T06:56:52.306Z,25.80
2019-04-16T06:59:53.658Z,18.83
2019-04-16T07:02:37.604Z,22.23
2019-04-16T07:05:16.031Z,20.30
2019-04-16T07:08:00.899Z,19.93
2019-04-16T07:10:44.375Z,21.13
2019-04-16T07:13:10.276Z,20.50
2019-04-16T07:15:39.145Z,21.42
2019-04-16T07:18:09.570Z,18.47
2019-04-16T07:20:42.318Z,19.97
2019-04-16T07:23:13.428Z,18.93
2019-04-16T07:25:44.924Z,22.63
2019-04-16T07:28:38.947Z,21.50
2019-04-16T07:31:31.769Z,22.13
2019-04-16T07:34:03.685Z,20.30
2019-04-16T07:36:56.636Z,20.23
2019-04-16T07:39:47.937Z,21.10
2019-04-16T07:42:50.999Z,21.80
2019-04-16T07:45:25.423Z,19.43
2019-04-16T07:48:23.848Z,18.57
2019-04-16T07:51:16.464Z,18.97
2019-04-16T07:54:04.266Z,19.40
2019-04-16T07:56:36.513Z,20.33
2019-04-16T07:59:06.976Z,17.90
2019-04-16T08:01:37.244Z,19.07
2019-04-16T08:04:08.007Z,20.40
2019-04-16T08:06:38.501Z,20.93
2019-04-16T08:09:10.427Z,19.37
2019-04-16T08:11:43.729Z,18.70
2019-04-16T08:14:15.770Z,17.93
2019-04-16T08:16:48.276Z,19.40
2019-04-16T08:19:18.725Z,18.17
2019-04-16T08:21:49.227Z,15.63
2019-04-16T08:24:25.519Z,18.40
2019-04-16T08:26:55.834Z,18.00
2019-04-16T08:29:26.704Z,18.43
2019-04-16T08:31:57.256Z,17.00
2019-04-16T08:34:27.806Z,17.63
2019-04-16T08:36:58.343Z,16.52
2019-04-16T08:39:28.720Z,16.52
2019-04-16T08:41:59.079Z,16.30
2019-04-16T08:44:29.878Z,16.10
2019-04-16T08:47:00.201Z,15.97
2019-04-16T08:49:33.388Z,15.23
2019-04-16T08:52:03.812Z,18.27
2019-04-16T08:54:34.309Z,15.47
2019-04-16T08:57:04.861Z,13.75
2019-04-16T08:59:35.379Z,14.87
2019-04-16T09:02:05.779Z,14.10
2019-04-16T09:04:36.391Z,13.35
2019-04-16T09:07:11.945Z,13.30
2019-04-16T09:09:57.127Z,13.60
2019-04-16T09:12:26.608Z,15.25
2019-04-16T09:14:57.038Z,14.80
2019-04-16T09:17:39.586Z,13.60
2019-04-16T09:20:12.705Z,17.45
2019-04-16T09:22:49.350Z,14.98
2019-04-16T09:25:32.944Z,14.70
2019-04-16T09:28:25.788Z,13.65
2019-04-16T09:31:08.273Z,14.00
2019-04-16T09:34:05.608Z,12.88
2019-04-16T09:37:10.106Z,12.75
2019-04-16T09:40:15.531Z,12.15
2019-04-16T09:42:35.710Z,11.15
2019-04-16T09:45:06.858Z,11.27
2019-04-16T09:47:37.150Z,9.50
2019-04-16T09:50:11.045Z,9.45
2019-04-16T09:52:39.691Z,10.10
2019-04-16T09:55:24.115Z,9.37
2019-04-16T09:57:54.917Z,9.73
2019-04-16T10:00:30.799Z,9.23
2019-04-16T10:03:10.166Z,10.77
2019-04-16T10:05:40.462Z,10.15
2019-04-16T10:08:12.631Z,9.58
2019-04-16T10:10:42.974Z,10.40
2019-04-16T10:13:13.153Z,10.48
2019-04-16T10:15:43.424Z,11.28
2019-04-16T10:18:13.688Z,12.47
2019-04-16T10:20:43.900Z,13.83
2019-04-16T10:23:20.927Z,11.38
2019-04-16T10:25:52.341Z,10.30
2019-04-16T10:28:29.641Z,10.03
2019-04-16T10:31:02.825Z,9.35
2019-04-16T10:33:33.214Z,8.18
2019-04-16T10:36:04.920Z,9.68
2019-04-16T10:38:45.703Z,9.08
2019-04-16T10:41:41.738Z,8.48
2019-04-16T10:44:29.697Z,8.10
2019-04-16T10:47:19.973Z,6.95
2019-04-16T10:50:08.850Z,7.08
2019-04-16T10:53:07.484Z,7.53
2019-04-16T10:55:55.403Z,7.45
2019-04-16T10:58:44.648Z,8.70
2019-04-16T11:01:45.743Z,9.48
2019-04-16T11:04:36.041Z,8.33
2019-04-16T11:15:03.516Z,6.33
2019-04-16T11:17:34.400Z,6.37
2019-04-16T11:20:06.168Z,5.33
2019-04-16T11:22:36.678Z,5.70
2019-04-16T11:25:07.925Z,6.35
2019-04-16T11:27:38.163Z,5.45
2019-04-16T11:30:12.376Z,6.05
2019-04-16T11:32:42.680Z,5.22
2019-04-16T11:35:17.364Z,6.10
2019-04-16T11:37:46.067Z,6.92
2019-04-16T11:40:16.819Z,5.37
2019-04-16T11:42:47.444Z,5.28
2019-04-16T11:45:19.021Z,5.28
2019-04-16T11:47:49.444Z,5.05
2019-04-16T11:50:19.895Z,5.10
2019-04-16T11:52:50.149Z,4.85
2019-04-16T11:55:20.435Z,5.33
2019-04-16T11:57:50.701Z,5.60
2019-04-16T12:00:28.595Z,5.60
2019-04-16T12:03:07.211Z,5.97
2019-04-16T12:05:51.913Z,5.22
2019-04-16T12:08:56.216Z,5.35
2019-04-16T12:11:45.811Z,6.20
2019-04-16T12:14:34.997Z,5.80
2019-04-16T12:17:11.669Z,6.40
2019-04-16T12:20:09.722Z,6.87
2019-04-16T12:23:02.194Z,6.60
2019-04-16T12:25:39.447Z,6.53
2019-04-16T12:28:28.544Z,6.53
2019-04-16T12:31:32.921Z,6.35
2019-04-16T12:34:10.230Z,5.58
2019-04-16T12:37:15.216Z,6.08
2019-04-16T12:40:23.029Z,8.20
2019-04-16T12:43:18.547Z,7.20
2019-04-16T12:45:56.876Z,8.78
2019-04-16T12:48:44.844Z,10.60
2019-04-16T12:51:19.935Z,13.65
2019-04-16T12:54:08.432Z,12.13
2019-04-16T12:57:07.063Z,15.83
2019-04-16T12:59:59.587Z,17.67
2019-04-16T13:02:54.647Z,14.67
2019-04-16T13:05:44.697Z,17.60
2019-04-16T13:08:33.158Z,18.30
2019-04-16T13:11:22.308Z,16.80
2019-04-16T13:17:01.768Z,16.90
2019-04-16T13:27:23.856Z,24.10
2019-04-16T13:32:23.511Z,25.97
2019-04-16T13:34:53.966Z,31.47
2019-04-16T13:37:24.640Z,29.43
2019-04-16T13:40:02.409Z,21.50
2019-04-16T13:42:33.332Z,19.90
2019-04-16T13:45:18.208Z,21.10
2019-04-16T13:47:47.591Z,21.87
2019-04-16T13:50:25.271Z,34.63
2019-04-16T13:53:04.890Z,21.60
2019-04-16T13:55:49.412Z,22.15
2019-04-16T13:58:43.307Z,20.50
2019-04-16T14:01:20.430Z,21.87
2019-04-16T14:03:50.799Z,26.83
2019-04-16T14:06:21.357Z,22.60
2019-04-16T14:08:53.431Z,23.27
2019-04-16T14:11:23.695Z,27.83
2019-04-16T14:13:54.189Z,35.67
2019-04-16T14:16:26.008Z,31.67
2019-04-16T14:18:56.669Z,34.07
2019-04-16T14:21:27.179Z,29.93
2019-04-16T14:23:57.502Z,41.83
2019-04-16T14:26:28.051Z,14.73
2019-04-16T14:28:58.740Z,17.30
2019-04-16T14:31:29.549Z,14.00
2019-04-16T14:34:14.064Z,16.23
2019-04-16T14:36:44.806Z,21.60
2019-04-16T14:39:40.202Z,17.90
2019-04-16T14:42:10.502Z,13.33
2019-04-16T14:44:45.045Z,11.70
2019-04-16T14:47:15.568Z,10.80
2019-04-16T14:49:47.787Z,8.97
2019-04-16T14:52:18.348Z,9.65
2019-04-16T14:55:25.838Z,11.30
2019-04-16T14:58:16.247Z,9.73
2019-04-16T15:01:04.735Z,9.40
2019-04-16T15:03:52.668Z,11.70
2019-04-16T15:06:43.317Z,10.87
2019-04-16T15:09:31.437Z,10.00
2019-04-16T15:12:20.582Z,11.40
2019-04-16T15:15:12.110Z,10.53
2019-04-16T15:17:48.396Z,11.27
2019-04-16T15:20:40.829Z,11.93
2019-04-16T15:23:28.882Z,11.20
2019-04-16T15:26:20.829Z,10.77
2019-04-16T15:28:59.607Z,11.27
2019-04-16T15:32:04.472Z,11.97
2019-04-16T15:34:41.971Z,12.30
2019-04-16T15:37:27.570Z,14.57
2019-04-16T15:40:06.935Z,20.30
2019-04-16T15:42:50.574Z,28.20
2019-04-16T15:45:43.768Z,18.50
2019-04-16T15:48:33.218Z,19.50
2019-04-16T15:51:23.282Z,20.90
2019-04-16T15:54:09.163Z,24.77
2019-04-16T15:56:43.404Z,18.27
2019-04-16T15:59:17.718Z,17.73
2019-04-16T16:02:11.862Z,19.80
2019-04-16T16:04:46.553Z,19.53
2019-04-16T16:07:23.976Z,18.87
2019-04-16T16:10:12.720Z,22.17
2019-04-16T16:12:41.218Z,23.00
2019-04-16T16:15:12.069Z,19.70
2019-04-16T16:17:42.517Z,19.03
2019-04-16T16:20:13.491Z,22.60
2019-04-16T16:22:43.923Z,29.90
2019-04-16T16:25:14.323Z,20.30
2019-04-16T16:27:47.029Z,20.37
2019-04-16T16:30:16.762Z,20.30
2019-04-16T16:32:47.041Z,19.10
2019-04-16T16:35:18.111Z,20.10
2019-04-16T16:37:48.431Z,23.37
2019-04-16T16:40:19.111Z,21.17
2019-04-16T16:42:49.587Z,22.50
2019-04-16T16:45:21.798Z,20.80
2019-04-16T16:47:52.038Z,21.90
2019-04-16T16:50:22.635Z,25.63
2019-04-16T16:53:15.235Z,19.80
2019-04-16T16:55:48.326Z,24.70
2019-04-16T16:58:36.216Z,18.67
2019-04-16T17:01:24.233Z,23.83
2019-04-16T17:04:13.586Z,19.90
2019-04-16T17:06:44.207Z,18.57
2019-04-16T17:09:31.980Z,19.07
2019-04-16T17:12:02.414Z,24.50
2019-04-16T17:14:36.467Z,21.27
2019-04-16T17:17:12.878Z,21.33
2019-04-16T17:19:37.428Z,19.23
2019-04-16T17:22:07.843Z,19.83
2019-04-16T17:24:38.262Z,21.07
2019-04-16T17:27:09.211Z,26.17
2019-04-16T17:29:39.550Z,19.97
2019-04-16T17:32:09.855Z,19.97
2019-04-16T17:34:40.538Z,23.70
2019-04-16T17:37:11.032Z,20.97
2019-04-16T17:39:52.853Z,20.83
2019-04-16T17:42:37.608Z,22.83
2019-04-16T17:45:28.308Z,18.30
2019-04-16T17:48:18.127Z,16.87
2019-04-16T17:51:07.905Z,19.60
2019-04-16T17:53:50.303Z,17.23
2019-04-16T17:56:38.475Z,16.73
2019-04-16T17:59:12.227Z,16.50
2019-04-16T18:02:04.514Z,19.57
2019-04-16T18:05:02.942Z,18.90
2019-04-16T18:07:51.227Z,18.33
2019-04-16T18:10:34.576Z,24.83
2019-04-16T18:13:13.865Z,18.23
2019-04-16T18:16:08.065Z,18.00
2019-04-16T18:18:49.347Z,19.67
2019-04-16T18:21:41.886Z,16.17
2019-04-16T18:24:37.269Z,19.30
2019-04-16T18:27:33.478Z,22.57
2019-04-16T18:30:38.450Z,17.03
2019-04-16T18:33:22.759Z,21.43
2019-04-16T18:36:17.061Z,20.85
2019-04-16T18:39:06.447Z,16.50
2019-04-16T18:41:42.665Z,19.50
2019-04-16T18:44:53.871Z,17.20
2019-04-16T18:47:45.740Z,16.00
2019-04-16T18:50:23.587Z,17.27
2019-04-16T18:52:52.187Z,11.87
2019-04-16T18:55:22.793Z,10.70
2019-04-16T18:57:53.472Z,9.50
2019-04-16T19:00:46.062Z,10.27
2019-04-16T19:03:16.657Z,12.40
2019-04-16T19:05:47.401Z,12.40
2019-04-16T19:08:17.851Z,11.23
2019-04-16T19:10:51.363Z,13.80
2019-04-16T19:13:21.859Z,11.20
2019-04-16T19:15:53.216Z,14.30
2019-04-16T19:18:25.288Z,12.20
2019-04-16T19:20:55.912Z,10.93
2019-04-16T19:23:26.358Z,11.50
2019-04-16T19:25:56.840Z,14.20
2019-04-16T19:28:27.972Z,11.50
2019-04-16T19:30:59.703Z,11.30
2019-04-16T19:33:34.354Z,17.80
2019-04-16T19:36:03.037Z,15.97
2019-04-16T19:38:35.798Z,9.57
2019-04-16T19:41:06.003Z,12.13
2019-04-16T19:43:37.132Z,12.23
2019-04-16T19:46:07.768Z,13.77
2019-04-16T19:48:38.201Z,13.00
2019-04-16T19:51:09.041Z,18.00
2019-04-16T19:53:39.932Z,14.93
2019-04-16T19:56:10.847Z,12.30
2019-04-16T19:58:44.275Z,12.23
2019-04-16T20:01:14.286Z,13.20
2019-04-16T20:03:44.607Z,14.03
2019-04-16T20:06:15.343Z,14.13
2019-04-16T20:08:45.970Z,14.38
2019-04-16T20:11:20.457Z,14.70
2019-04-16T20:13:49.161Z,12.40
2019-04-16T20:16:19.451Z,13.30
2019-04-16T20:18:51.496Z,13.60
2019-04-16T20:21:22.090Z,14.10
2019-04-16T20:23:53.120Z,14.37
2019-04-16T20:26:23.851Z,13.60
2019-04-16T20:28:56.761Z,15.07
2019-04-16T20:31:27.232Z,15.70
2019-04-16T20:33:57.496Z,20.33
2019-04-16T20:36:27.871Z,14.50
2019-04-16T20:38:58.628Z,12.13
2019-04-16T20:41:28.883Z,13.30
2019-04-16T20:43:59.369Z,12.70
2019-04-16T20:46:29.811Z,12.90
2019-04-16T20:49:09.632Z,16.00
2019-04-16T20:51:32.633Z,13.00
2019-04-16T20:54:12.831Z,13.35
2019-04-16T20:56:41.193Z,14.00
2019-04-16T20:59:11.873Z,14.37
2019-04-16T21:01:42.204Z,14.13
2019-04-16T21:04:12.642Z,14.40
2019-04-16T21:06:42.990Z,13.90
2019-04-16T21:09:13.710Z,12.53
2019-04-16T21:11:44.068Z,19.00
2019-04-16T21:14:14.461Z,15.30
2019-04-16T21:16:44.967Z,13.13
2019-04-16T21:19:23.012Z,14.40
2019-04-16T21:21:47.624Z,14.73
2019-04-16T21:24:18.019Z,14.80
2019-04-16T21:26:51.126Z,13.57
2019-04-16T21:29:33.344Z,12.13
2019-04-16T21:32:09.881Z,12.70
2019-04-16T21:34:47.204Z,13.87
2019-04-16T21:37:35.687Z,15.17
2019-04-16T21:40:10.003Z,13.70
2019-04-16T21:42:41.604Z,14.63
2019-04-16T21:45:16.446Z,13.10
2019-04-16T21:47:47.637Z,12.90
2019-04-16T21:50:18.327Z,11.67
2019-04-16T21:52:48.887Z,15.60
2019-04-16T21:55:19.946Z,15.07
2019-04-16T21:57:50.204Z,13.40
2019-04-16T22:00:38.352Z,13.97
2019-04-16T22:03:11.707Z,13.67
2019-04-16T22:05:42.405Z,13.80
2019-04-16T22:08:13.300Z,14.30
2019-04-16T22:10:46.758Z,15.90
2019-04-16T22:13:19.346Z,13.07
2019-04-16T22:15:49.863Z,13.93
2019-04-16T22:18:20.325Z,12.37
2019-04-16T22:20:50.976Z,13.50
2019-04-16T22:23:21.283Z,12.80
2019-04-16T22:25:53.031Z,15.10
2019-04-16T22:28:23.512Z,15.38
2019-04-16T22:30:53.712Z,14.23
2019-04-16T22:33:24.013Z,15.57
2019-04-16T22:35:54.227Z,14.50
2019-04-16T22:38:25.175Z,15.30
2019-04-16T22:41:11.142Z,14.93
2019-04-16T22:44:00.539Z,14.43
2019-04-16T22:46:37.614Z,13.03
2019-04-16T22:49:08.022Z,13.83
2019-04-16T22:51:39.757Z,13.30
2019-04-16T22:54:10.367Z,14.73
2019-04-16T22:57:11.686Z,16.30
2019-04-16T22:59:41.847Z,15.30
2019-04-16T23:02:22.423Z,16.12
2019-04-16T23:04:54.936Z,15.07
2019-04-16T23:07:25.163Z,14.00
2019-04-16T23:09:55.523Z,14.57
2019-04-16T23:12:28.091Z,13.63
2019-04-16T23:14:57.628Z,13.90
2019-04-16T23:17:27.947Z,11.40
2019-04-16T23:19:58.230Z,12.00
2019-04-16T23:22:28.584Z,15.90
2019-04-16T23:24:58.784Z,13.03
2019-04-16T23:27:28.957Z,14.63
2019-04-16T23:29:59.141Z,15.53
2019-04-16T23:32:29.300Z,14.33
2019-04-16T23:34:59.588Z,13.43
2019-04-16T23:37:29.696Z,13.30
2019-04-16T23:39:59.891Z,13.83
2019-04-16T23:42:30.145Z,14.10
2019-04-16T23:45:22.497Z,14.27
2019-04-16T23:48:14.647Z,16.43
2019-04-16T23:50:50.572Z,16.50
2019-04-16T23:53:25.664Z,15.83
2019-04-16T23:56:24.022Z,16.10
2019-04-16T23:59:22.624Z,15.70
